sensor_id;sensor_type;location;lat;lon;timestamp;temperature;humidity
40676;DHT22;26359;48.750;9.314;2022-11-20T00:00:03;6.60;99.90
40676;DHT22;26359;48.750;9.314;2022-11-20T00:02:29;6.60;99.90
40676;DHT22;26359;48.750;9.314;2022-11-20T00:04:54;6.70;99.90
40676;DHT22;26359;48.750;9.314;2022-11-20T00:07:20;6.60;99.90
40676;DHT22;26359;48.750;9.314;2022-11-20T00:09:45;6.60;99.90
40676;DHT22;26359;48.750;9.314;2022-11-20T00:12:11;6.60;99.90
40676;DHT22;26359;48.750;9.314;2022-11-20T00:14:36;6.60;99.90
40676;DHT22;26359;48.750;9.314;2022-11-20T00:17:02;6.60;99.90
40676;DHT22;26359;48.750;9.314;2022-11-20T00:19:27;6.60;99.90
40676;DHT22;26359;48.750;9.314;2022-11-20T00:21:53;6.60;99.90
40676;DHT22;26359;48.750;9.314;2022-11-20T00:24:20;6.60;99.90
40676;DHT22;26359;48.750;9.314;2022-11-20T00:26:46;6.50;99.90
40676;DHT22;26359;48.750;9.314;2022-11-20T00:29:11;6.40;99.90
40676;DHT22;26359;48.750;9.314;2022-11-20T00:31:37;6.40;99.90
40676;DHT22;26359;48.750;9.314;2022-11-20T00:34:02;6.40;99.90
40676;DHT22;26359;48.750;9.314;2022-11-20T00:36:31;6.40;99.90
40676;DHT22;26359;48.750;9.314;2022-11-20T00:38:58;6.50;99.90
40676;DHT22;26359;48.750;9.314;2022-11-20T00:41:25;6.40;99.90
40676;DHT22;26359;48.750;9.314;2022-11-20T00:43:52;6.40;99.90
40676;DHT22;26359;48.750;9.314;2022-11-20T00:46:20;6.40;99.90
40676;DHT22;26359;48.750;9.314;2022-11-20T00:48:46;6.40;99.90
40676;DHT22;26359;48.750;9.314;2022-11-20T00:51:14;6.40;99.90
40676;DHT22;26359;48.750;9.314;2022-11-20T00:53:40;6.40;99.90
40676;DHT22;26359;48.750;9.314;2022-11-20T00:56:07;6.40;99.90
40676;DHT22;26359;48.750;9.314;2022-11-20T00:58:36;6.40;99.90
40676;DHT22;26359;48.750;9.314;2022-11-20T01:01:06;6.40;99.90
40676;DHT22;26359;48.750;9.314;2022-11-20T01:03:34;6.40;99.90
40676;DHT22;26359;48.750;9.314;2022-11-20T01:06:01;6.40;99.90
40676;DHT22;26359;48.750;9.314;2022-11-20T01:08:30;6.40;99.90
40676;DHT22;26359;48.750;9.314;2022-11-20T01:11:05;6.40;99.90
40676;DHT22;26359;48.750;9.314;2022-11-20T01:13:32;6.30;99.90
40676;DHT22;26359;48.750;9.314;2022-11-20T01:16:13;6.20;99.90
40676;DHT22;26359;48.750;9.314;2022-11-20T01:18:41;6.20;99.90
40676;DHT22;26359;48.750;9.314;2022-11-20T01:21:10;6.20;99.90
40676;DHT22;26359;48.750;9.314;2022-11-20T01:23:37;6.20;99.90
40676;DHT22;26359;48.750;9.314;2022-11-20T01:26:05;6.10;99.90
40676;DHT22;26359;48.750;9.314;2022-11-20T01:28:31;6.10;99.90
40676;DHT22;26359;48.750;9.314;2022-11-20T01:30:57;6.10;99.90
40676;DHT22;26359;48.750;9.314;2022-11-20T01:33:22;6.20;99.90
40676;DHT22;26359;48.750;9.314;2022-11-20T01:35:48;6.20;99.90
40676;DHT22;26359;48.750;9.314;2022-11-20T01:38:15;6.20;99.90
40676;DHT22;26359;48.750;9.314;2022-11-20T01:40:41;6.20;99.90
40676;DHT22;26359;48.750;9.314;2022-11-20T01:43:17;6.20;99.90
40676;DHT22;26359;48.750;9.314;2022-11-20T01:53:46;6.10;99.90
40676;DHT22;26359;48.750;9.314;2022-11-20T01:56:13;6.20;99.90
40676;DHT22;26359;48.750;9.314;2022-11-20T01:58:44;6.20;99.90
40676;DHT22;26359;48.750;9.314;2022-11-20T02:01:12;6.20;99.90
40676;DHT22;26359;48.750;9.314;2022-11-20T02:03:38;6.20;99.90
40676;DHT22;26359;48.750;9.314;2022-11-20T02:08:41;6.30;99.90
40676;DHT22;26359;48.750;9.314;2022-11-20T02:11:07;6.20;99.90
40676;DHT22;26359;48.750;9.314;2022-11-20T02:13:33;6.20;99.90
40676;DHT22;26359;48.750;9.314;2022-11-20T02:18:39;6.10;99.90
40676;DHT22;26359;48.750;9.314;2022-11-20T02:21:25;6.10;99.90
40676;DHT22;26359;48.750;9.314;2022-11-20T02:24:08;6.10;99.90
40676;DHT22;26359;48.750;9.314;2022-11-20T02:26:41;6.10;99.90
40676;DHT22;26359;48.750;9.314;2022-11-20T02:29:07;6.00;99.90
40676;DHT22;26359;48.750;9.314;2022-11-20T02:31:41;5.90;99.90
40676;DHT22;26359;48.750;9.314;2022-11-20T02:34:08;6.00;99.90
40676;DHT22;26359;48.750;9.314;2022-11-20T02:36:34;6.10;99.90
40676;DHT22;26359;48.750;9.314;2022-11-20T02:39:02;6.10;99.90
40676;DHT22;26359;48.750;9.314;2022-11-20T02:41:35;6.20;99.90
40676;DHT22;26359;48.750;9.314;2022-11-20T02:44:02;6.10;99.90
40676;DHT22;26359;48.750;9.314;2022-11-20T02:46:28;6.20;99.90
40676;DHT22;26359;48.750;9.314;2022-11-20T02:48:54;6.10;99.90
40676;DHT22;26359;48.750;9.314;2022-11-20T02:51:20;6.00;99.90
40676;DHT22;26359;48.750;9.314;2022-11-20T02:53:45;6.00;99.90
40676;DHT22;26359;48.750;9.314;2022-11-20T02:56:11;5.90;99.90
40676;DHT22;26359;48.750;9.314;2022-11-20T02:58:37;5.80;99.90
40676;DHT22;26359;48.750;9.314;2022-11-20T03:01:02;5.90;99.90
40676;DHT22;26359;48.750;9.314;2022-11-20T03:03:28;5.80;99.90
40676;DHT22;26359;48.750;9.314;2022-11-20T03:05:53;5.80;99.90
40676;DHT22;26359;48.750;9.314;2022-11-20T03:08:19;5.90;99.90
40676;DHT22;26359;48.750;9.314;2022-11-20T03:10:44;5.90;99.90
40676;DHT22;26359;48.750;9.314;2022-11-20T03:13:10;5.90;99.90
40676;DHT22;26359;48.750;9.314;2022-11-20T03:15:36;5.90;99.90
40676;DHT22;26359;48.750;9.314;2022-11-20T03:18:02;5.90;99.90
40676;DHT22;26359;48.750;9.314;2022-11-20T03:20:28;5.80;99.90
40676;DHT22;26359;48.750;9.314;2022-11-20T03:22:54;5.70;99.90
40676;DHT22;26359;48.750;9.314;2022-11-20T03:25:20;5.70;99.90
40676;DHT22;26359;48.750;9.314;2022-11-20T03:27:46;5.60;99.90
40676;DHT22;26359;48.750;9.314;2022-11-20T03:30:12;5.60;99.90
40676;DHT22;26359;48.750;9.314;2022-11-20T03:32:38;5.70;99.90
40676;DHT22;26359;48.750;9.314;2022-11-20T03:35:03;5.60;99.90
40676;DHT22;26359;48.750;9.314;2022-11-20T03:37:29;5.60;99.90
40676;DHT22;26359;48.750;9.314;2022-11-20T03:39:55;5.70;99.90
40676;DHT22;26359;48.750;9.314;2022-11-20T03:42:20;5.80;99.90
40676;DHT22;26359;48.750;9.314;2022-11-20T03:45:05;5.80;99.90
40676;DHT22;26359;48.750;9.314;2022-11-20T03:47:30;5.80;99.90
40676;DHT22;26359;48.750;9.314;2022-11-20T03:49:56;5.80;99.90
40676;DHT22;26359;48.750;9.314;2022-11-20T03:52:21;5.90;99.90
40676;DHT22;26359;48.750;9.314;2022-11-20T03:54:47;5.90;99.90
40676;DHT22;26359;48.750;9.314;2022-11-20T03:57:12;5.90;99.90
40676;DHT22;26359;48.750;9.314;2022-11-20T03:59:38;5.80;99.90
40676;DHT22;26359;48.750;9.314;2022-11-20T04:02:03;5.80;99.90
40676;DHT22;26359;48.750;9.314;2022-11-20T04:04:29;5.70;99.90
40676;DHT22;26359;48.750;9.314;2022-11-20T04:06:54;5.70;99.90
40676;DHT22;26359;48.750;9.314;2022-11-20T04:09:20;5.70;99.90
40676;DHT22;26359;48.750;9.314;2022-11-20T04:11:45;5.70;99.90
40676;DHT22;26359;48.750;9.314;2022-11-20T04:14:14;5.70;99.90
40676;DHT22;26359;48.750;9.314;2022-11-20T04:16:40;5.70;99.90
40676;DHT22;26359;48.750;9.314;2022-11-20T04:19:09;5.80;99.90
40676;DHT22;26359;48.750;9.314;2022-11-20T04:21:35;5.70;99.90
40676;DHT22;26359;48.750;9.314;2022-11-20T04:24:01;5.70;99.90
40676;DHT22;26359;48.750;9.314;2022-11-20T04:26:27;5.70;99.90
40676;DHT22;26359;48.750;9.314;2022-11-20T04:28:54;5.70;99.90
40676;DHT22;26359;48.750;9.314;2022-11-20T04:31:28;5.80;99.90
40676;DHT22;26359;48.750;9.314;2022-11-20T04:33:54;5.80;99.90
40676;DHT22;26359;48.750;9.314;2022-11-20T04:36:22;5.80;99.90
40676;DHT22;26359;48.750;9.314;2022-11-20T04:38:52;5.90;99.90
40676;DHT22;26359;48.750;9.314;2022-11-20T04:41:20;5.80;99.90
40676;DHT22;26359;48.750;9.314;2022-11-20T04:43:50;5.90;99.90
40676;DHT22;26359;48.750;9.314;2022-11-20T04:46:16;6.00;99.90
40676;DHT22;26359;48.750;9.314;2022-11-20T04:48:42;6.00;99.90
40676;DHT22;26359;48.750;9.314;2022-11-20T04:51:08;6.00;99.90
40676;DHT22;26359;48.750;9.314;2022-11-20T04:53:33;5.90;99.90
40676;DHT22;26359;48.750;9.314;2022-11-20T04:56:00;5.90;99.90
40676;DHT22;26359;48.750;9.314;2022-11-20T04:58:26;5.80;99.90
40676;DHT22;26359;48.750;9.314;2022-11-20T05:00:52;5.80;99.90
40676;DHT22;26359;48.750;9.314;2022-11-20T05:03:18;5.80;99.90
40676;DHT22;26359;48.750;9.314;2022-11-20T05:05:43;5.90;99.90
40676;DHT22;26359;48.750;9.314;2022-11-20T05:08:09;5.90;99.90
40676;DHT22;26359;48.750;9.314;2022-11-20T05:10:34;5.90;99.90
40676;DHT22;26359;48.750;9.314;2022-11-20T05:13:00;5.90;99.90
40676;DHT22;26359;48.750;9.314;2022-11-20T05:15:25;5.90;99.90
40676;DHT22;26359;48.750;9.314;2022-11-20T05:17:52;5.90;99.90
40676;DHT22;26359;48.750;9.314;2022-11-20T05:20:18;5.90;99.90
40676;DHT22;26359;48.750;9.314;2022-11-20T05:22:44;5.80;99.90
40676;DHT22;26359;48.750;9.314;2022-11-20T05:25:10;5.80;99.90
40676;DHT22;26359;48.750;9.314;2022-11-20T05:27:36;5.80;99.90
40676;DHT22;26359;48.750;9.314;2022-11-20T05:30:05;5.80;99.90
40676;DHT22;26359;48.750;9.314;2022-11-20T05:32:31;5.90;99.90
40676;DHT22;26359;48.750;9.314;2022-11-20T05:34:57;6.00;99.90
40676;DHT22;26359;48.750;9.314;2022-11-20T05:37:22;6.00;99.90
40676;DHT22;26359;48.750;9.314;2022-11-20T05:39:48;6.10;99.90
40676;DHT22;26359;48.750;9.314;2022-11-20T05:42:13;6.00;99.90
40676;DHT22;26359;48.750;9.314;2022-11-20T05:45:02;6.00;99.90
40676;DHT22;26359;48.750;9.314;2022-11-20T05:47:31;6.00;99.90
40676;DHT22;26359;48.750;9.314;2022-11-20T05:49:57;6.10;99.90
40676;DHT22;26359;48.750;9.314;2022-11-20T05:52:23;6.00;99.90
40676;DHT22;26359;48.750;9.314;2022-11-20T05:54:49;6.10;99.90
40676;DHT22;26359;48.750;9.314;2022-11-20T05:57:14;6.10;99.90
40676;DHT22;26359;48.750;9.314;2022-11-20T05:59:40;6.10;99.90
40676;DHT22;26359;48.750;9.314;2022-11-20T06:02:05;6.00;99.90
40676;DHT22;26359;48.750;9.314;2022-11-20T06:04:31;6.00;99.90
40676;DHT22;26359;48.750;9.314;2022-11-20T06:06:56;6.00;99.90
40676;DHT22;26359;48.750;9.314;2022-11-20T06:09:22;6.00;99.90
40676;DHT22;26359;48.750;9.314;2022-11-20T06:11:47;5.90;99.90
40676;DHT22;26359;48.750;9.314;2022-11-20T06:14:13;5.90;99.90
40676;DHT22;26359;48.750;9.314;2022-11-20T06:16:38;5.90;99.90
40676;DHT22;26359;48.750;9.314;2022-11-20T06:19:04;6.00;99.90
40676;DHT22;26359;48.750;9.314;2022-11-20T06:21:29;6.00;99.90
40676;DHT22;26359;48.750;9.314;2022-11-20T06:23:55;6.00;99.90
40676;DHT22;26359;48.750;9.314;2022-11-20T06:26:26;6.00;99.90
40676;DHT22;26359;48.750;9.314;2022-11-20T06:28:52;6.00;99.90
40676;DHT22;26359;48.750;9.314;2022-11-20T06:31:21;6.00;99.90
40676;DHT22;26359;48.750;9.314;2022-11-20T06:33:47;6.10;99.90
40676;DHT22;26359;48.750;9.314;2022-11-20T06:36:14;6.10;99.90
40676;DHT22;26359;48.750;9.314;2022-11-20T06:38:41;6.10;99.90
40676;DHT22;26359;48.750;9.314;2022-11-20T06:41:10;6.00;99.90
40676;DHT22;26359;48.750;9.314;2022-11-20T06:43:36;6.00;99.90
40676;DHT22;26359;48.750;9.314;2022-11-20T06:46:02;6.00;99.90
40676;DHT22;26359;48.750;9.314;2022-11-20T06:48:28;6.00;99.90
40676;DHT22;26359;48.750;9.314;2022-11-20T06:50:54;6.00;99.90
40676;DHT22;26359;48.750;9.314;2022-11-20T06:53:19;6.00;99.90
40676;DHT22;26359;48.750;9.314;2022-11-20T06:55:46;5.90;99.90
40676;DHT22;26359;48.750;9.314;2022-11-20T06:58:12;5.90;99.90
40676;DHT22;26359;48.750;9.314;2022-11-20T07:00:38;5.80;99.90
40676;DHT22;26359;48.750;9.314;2022-11-20T07:03:05;6.00;99.90
40676;DHT22;26359;48.750;9.314;2022-11-20T07:05:31;6.00;99.90
40676;DHT22;26359;48.750;9.314;2022-11-20T07:07:57;6.00;99.90
40676;DHT22;26359;48.750;9.314;2022-11-20T07:10:23;6.00;99.90
40676;DHT22;26359;48.750;9.314;2022-11-20T07:12:50;5.90;99.90
40676;DHT22;26359;48.750;9.314;2022-11-20T07:15:16;5.90;99.90
40676;DHT22;26359;48.750;9.314;2022-11-20T07:17:42;5.90;99.90
40676;DHT22;26359;48.750;9.314;2022-11-20T07:20:08;5.90;99.90
40676;DHT22;26359;48.750;9.314;2022-11-20T07:22:34;5.90;99.90
40676;DHT22;26359;48.750;9.314;2022-11-20T07:24:59;5.90;99.90
40676;DHT22;26359;48.750;9.314;2022-11-20T07:27:25;5.90;99.90
40676;DHT22;26359;48.750;9.314;2022-11-20T07:29:51;5.90;99.90
40676;DHT22;26359;48.750;9.314;2022-11-20T07:32:16;5.90;99.90
40676;DHT22;26359;48.750;9.314;2022-11-20T07:34:42;5.90;99.90
40676;DHT22;26359;48.750;9.314;2022-11-20T07:37:08;5.90;99.90
40676;DHT22;26359;48.750;9.314;2022-11-20T07:39:33;6.00;99.90
40676;DHT22;26359;48.750;9.314;2022-11-20T07:41:59;6.00;99.90
40676;DHT22;26359;48.750;9.314;2022-11-20T07:44:24;6.10;99.90
40676;DHT22;26359;48.750;9.314;2022-11-20T07:46:50;6.10;99.90
40676;DHT22;26359;48.750;9.314;2022-11-20T07:49:15;6.00;99.90
40676;DHT22;26359;48.750;9.314;2022-11-20T07:51:41;6.00;99.90
40676;DHT22;26359;48.750;9.314;2022-11-20T07:54:06;6.00;99.90
40676;DHT22;26359;48.750;9.314;2022-11-20T07:56:32;6.10;99.90
40676;DHT22;26359;48.750;9.314;2022-11-20T07:58:57;6.10;99.90
40676;DHT22;26359;48.750;9.314;2022-11-20T08:01:23;6.00;99.90
40676;DHT22;26359;48.750;9.314;2022-11-20T08:03:48;6.10;99.90
40676;DHT22;26359;48.750;9.314;2022-11-20T08:06:14;6.20;99.90
40676;DHT22;26359;48.750;9.314;2022-11-20T08:08:40;6.20;99.90
40676;DHT22;26359;48.750;9.314;2022-11-20T08:11:06;6.20;99.90
40676;DHT22;26359;48.750;9.314;2022-11-20T08:13:50;6.10;99.90
40676;DHT22;26359;48.750;9.314;2022-11-20T08:16:34;6.20;99.90
40676;DHT22;26359;48.750;9.314;2022-11-20T08:19:00;6.30;99.90
40676;DHT22;26359;48.750;9.314;2022-11-20T08:21:25;6.30;99.90
40676;DHT22;26359;48.750;9.314;2022-11-20T08:23:51;6.40;99.90
40676;DHT22;26359;48.750;9.314;2022-11-20T08:26:16;6.30;99.90
40676;DHT22;26359;48.750;9.314;2022-11-20T08:28:42;6.30;99.90
40676;DHT22;26359;48.750;9.314;2022-11-20T08:31:07;6.40;99.90
40676;DHT22;26359;48.750;9.314;2022-11-20T08:33:35;6.40;99.90
40676;DHT22;26359;48.750;9.314;2022-11-20T08:36:02;6.40;99.90
40676;DHT22;26359;48.750;9.314;2022-11-20T08:38:28;6.40;99.90
40676;DHT22;26359;48.750;9.314;2022-11-20T08:40:57;6.40;99.90
40676;DHT22;26359;48.750;9.314;2022-11-20T08:43:41;6.40;99.90
40676;DHT22;26359;48.750;9.314;2022-11-20T08:46:07;6.50;99.90
40676;DHT22;26359;48.750;9.314;2022-11-20T08:48:32;6.40;99.90
40676;DHT22;26359;48.750;9.314;2022-11-20T08:50:58;6.50;99.90
40676;DHT22;26359;48.750;9.314;2022-11-20T08:53:25;6.50;99.90
40676;DHT22;26359;48.750;9.314;2022-11-20T08:55:50;6.50;99.90
40676;DHT22;26359;48.750;9.314;2022-11-20T08:58:16;6.50;99.90
40676;DHT22;26359;48.750;9.314;2022-11-20T09:00:41;6.40;99.90
40676;DHT22;26359;48.750;9.314;2022-11-20T09:03:07;6.50;99.90
40676;DHT22;26359;48.750;9.314;2022-11-20T09:05:32;6.50;99.90
40676;DHT22;26359;48.750;9.314;2022-11-20T09:07:58;6.50;99.90
40676;DHT22;26359;48.750;9.314;2022-11-20T09:10:25;6.60;99.90
40676;DHT22;26359;48.750;9.314;2022-11-20T09:12:53;6.70;99.90
40676;DHT22;26359;48.750;9.314;2022-11-20T09:15:21;6.80;99.90
40676;DHT22;26359;48.750;9.314;2022-11-20T09:17:57;6.80;99.90
40676;DHT22;26359;48.750;9.314;2022-11-20T09:20:26;6.80;99.90
40676;DHT22;26359;48.750;9.314;2022-11-20T09:23:03;6.80;99.90
40676;DHT22;26359;48.750;9.314;2022-11-20T09:25:33;6.80;99.90
40676;DHT22;26359;48.750;9.314;2022-11-20T09:28:00;6.80;99.90
40676;DHT22;26359;48.750;9.314;2022-11-20T09:30:28;6.80;99.90
40676;DHT22;26359;48.750;9.314;2022-11-20T09:32:57;6.80;99.90
40676;DHT22;26359;48.750;9.314;2022-11-20T09:35:25;6.90;99.90
40676;DHT22;26359;48.750;9.314;2022-11-20T09:37:53;6.80;99.90
40676;DHT22;26359;48.750;9.314;2022-11-20T09:40:34;6.90;99.90
40676;DHT22;26359;48.750;9.314;2022-11-20T09:54:21;7.00;99.90
40676;DHT22;26359;48.750;9.314;2022-11-20T09:56:54;7.10;99.90
40676;DHT22;26359;48.750;9.314;2022-11-20T10:01:52;7.00;99.90
40676;DHT22;26359;48.750;9.314;2022-11-20T10:04:20;7.00;99.90
40676;DHT22;26359;48.750;9.314;2022-11-20T10:07:07;7.10;99.90
40676;DHT22;26359;48.750;9.314;2022-11-20T10:09:40;7.10;99.90
40676;DHT22;26359;48.750;9.314;2022-11-20T10:20:55;7.20;99.90
40676;DHT22;26359;48.750;9.314;2022-11-20T10:24:15;7.10;99.90
40676;DHT22;26359;48.750;9.314;2022-11-20T10:26:20;7.20;99.90
40676;DHT22;26359;48.750;9.314;2022-11-20T10:31:30;7.20;99.90
40676;DHT22;26359;48.750;9.314;2022-11-20T10:34:01;7.20;99.90
40676;DHT22;26359;48.750;9.314;2022-11-20T10:36:33;7.20;99.90
40676;DHT22;26359;48.750;9.314;2022-11-20T10:39:07;7.20;99.90
40676;DHT22;26359;48.750;9.314;2022-11-20T10:41:41;7.20;99.90
40676;DHT22;26359;48.750;9.314;2022-11-20T10:44:16;7.10;99.90
40676;DHT22;26359;48.750;9.314;2022-11-20T10:47:03;7.10;99.90
40676;DHT22;26359;48.750;9.314;2022-11-20T10:49:31;7.10;99.90
40676;DHT22;26359;48.750;9.314;2022-11-20T10:52:37;7.00;99.90
40676;DHT22;26359;48.750;9.314;2022-11-20T11:00:21;7.00;99.90
40676;DHT22;26359;48.750;9.314;2022-11-20T11:02:53;7.00;99.90
40676;DHT22;26359;48.750;9.314;2022-11-20T11:07:47;7.00;99.90
40676;DHT22;26359;48.750;9.314;2022-11-20T11:10:39;7.00;99.90
40676;DHT22;26359;48.750;9.314;2022-11-20T11:13:07;6.90;99.90
40676;DHT22;26359;48.750;9.314;2022-11-20T11:15:44;6.90;99.90
40676;DHT22;26359;48.750;9.314;2022-11-20T11:18:10;6.90;99.90
40676;DHT22;26359;48.750;9.314;2022-11-20T11:20:37;6.90;99.90
40676;DHT22;26359;48.750;9.314;2022-11-20T11:23:03;6.90;99.90
40676;DHT22;26359;48.750;9.314;2022-11-20T11:25:35;6.80;99.90
40676;DHT22;26359;48.750;9.314;2022-11-20T11:28:03;6.80;99.90
40676;DHT22;26359;48.750;9.314;2022-11-20T11:30:40;6.80;99.90
40676;DHT22;26359;48.750;9.314;2022-11-20T11:33:09;6.80;99.90
40676;DHT22;26359;48.750;9.314;2022-11-20T11:35:45;6.80;99.90
40676;DHT22;26359;48.750;9.314;2022-11-20T11:38:21;6.90;99.90
40676;DHT22;26359;48.750;9.314;2022-11-20T11:40:47;6.90;99.90
40676;DHT22;26359;48.750;9.314;2022-11-20T11:43:22;6.90;99.90
40676;DHT22;26359;48.750;9.314;2022-11-20T11:46:33;7.10;99.90
40676;DHT22;26359;48.750;9.314;2022-11-20T11:51:40;7.90;99.90
40676;DHT22;26359;48.750;9.314;2022-11-20T11:54:26;8.40;99.90
40676;DHT22;26359;48.750;9.314;2022-11-20T11:56:54;9.00;99.90
40676;DHT22;26359;48.750;9.314;2022-11-20T11:59:35;9.30;99.90
40676;DHT22;26359;48.750;9.314;2022-11-20T12:05:08;9.40;99.90
40676;DHT22;26359;48.750;9.314;2022-11-20T12:10:45;9.80;99.90
40676;DHT22;26359;48.750;9.314;2022-11-20T12:17:15;10.70;99.90
40676;DHT22;26359;48.750;9.314;2022-11-20T12:23:00;10.30;99.90
40676;DHT22;26359;48.750;9.314;2022-11-20T12:25:39;10.10;99.90
40676;DHT22;26359;48.750;9.314;2022-11-20T12:28:51;10.00;99.90
40676;DHT22;26359;48.750;9.314;2022-11-20T12:36:43;9.40;99.90
40676;DHT22;26359;48.750;9.314;2022-11-20T12:39:22;9.40;99.90
40676;DHT22;26359;48.750;9.314;2022-11-20T12:42:17;9.30;99.90
40676;DHT22;26359;48.750;9.314;2022-11-20T12:45:28;9.10;99.90
40676;DHT22;26359;48.750;9.314;2022-11-20T12:48:05;8.90;99.90
40676;DHT22;26359;48.750;9.314;2022-11-20T12:59:17;8.60;99.90
40676;DHT22;26359;48.750;9.314;2022-11-20T13:07:22;8.70;99.90
40676;DHT22;26359;48.750;9.314;2022-11-20T13:09:50;8.90;99.90
40676;DHT22;26359;48.750;9.314;2022-11-20T13:12:34;9.10;99.90
40676;DHT22;26359;48.750;9.314;2022-11-20T13:17:42;9.70;99.90
40676;DHT22;26359;48.750;9.314;2022-11-20T13:20:17;9.90;99.90
40676;DHT22;26359;48.750;9.314;2022-11-20T13:22:54;10.00;99.90
40676;DHT22;26359;48.750;9.314;2022-11-20T13:25:36;9.90;99.90
40676;DHT22;26359;48.750;9.314;2022-11-20T13:30:52;9.40;99.90
40676;DHT22;26359;48.750;9.314;2022-11-20T13:33:38;9.20;99.90
40676;DHT22;26359;48.750;9.314;2022-11-20T13:36:06;9.20;99.90
40676;DHT22;26359;48.750;9.314;2022-11-20T13:38:46;9.10;99.90
40676;DHT22;26359;48.750;9.314;2022-11-20T13:41:11;9.00;99.90
40676;DHT22;26359;48.750;9.314;2022-11-20T13:44:10;9.00;99.90
40676;DHT22;26359;48.750;9.314;2022-11-20T13:46:40;9.00;99.90
40676;DHT22;26359;48.750;9.314;2022-11-20T13:57:52;9.70;99.90
40676;DHT22;26359;48.750;9.314;2022-11-20T14:00:22;9.80;99.90
40676;DHT22;26359;48.750;9.314;2022-11-20T14:03:09;9.80;99.90
40676;DHT22;26359;48.750;9.314;2022-11-20T14:05:40;9.70;99.90
40676;DHT22;26359;48.750;9.314;2022-11-20T14:08:22;9.70;99.90
40676;DHT22;26359;48.750;9.314;2022-11-20T14:10:49;9.60;99.90
40676;DHT22;26359;48.750;9.314;2022-11-20T14:13:19;9.50;99.90
40676;DHT22;26359;48.750;9.314;2022-11-20T14:15:44;9.40;99.90
40676;DHT22;26359;48.750;9.314;2022-11-20T14:18:28;9.30;99.90
40676;DHT22;26359;48.750;9.314;2022-11-20T14:20:54;9.10;99.90
40676;DHT22;26359;48.750;9.314;2022-11-20T14:23:27;9.00;99.90
40676;DHT22;26359;48.750;9.314;2022-11-20T14:25:54;8.90;99.90
40676;DHT22;26359;48.750;9.314;2022-11-20T14:28:25;8.80;99.90
40676;DHT22;26359;48.750;9.314;2022-11-20T14:30:52;8.80;99.90
40676;DHT22;26359;48.750;9.314;2022-11-20T14:33:18;8.60;99.90
40676;DHT22;26359;48.750;9.314;2022-11-20T14:35:50;8.40;99.90
40676;DHT22;26359;48.750;9.314;2022-11-20T14:38:18;8.40;99.90
40676;DHT22;26359;48.750;9.314;2022-11-20T14:40:45;8.30;99.90
40676;DHT22;26359;48.750;9.314;2022-11-20T14:43:26;8.20;99.90
40676;DHT22;26359;48.750;9.314;2022-11-20T14:46:10;8.20;99.90
40676;DHT22;26359;48.750;9.314;2022-11-20T14:51:11;8.10;99.90
40676;DHT22;26359;48.750;9.314;2022-11-20T14:53:37;8.10;99.90
40676;DHT22;26359;48.750;9.314;2022-11-20T14:56:03;7.90;99.90
40676;DHT22;26359;48.750;9.314;2022-11-20T14:58:30;7.90;99.90
40676;DHT22;26359;48.750;9.314;2022-11-20T15:01:05;7.90;99.90
40676;DHT22;26359;48.750;9.314;2022-11-20T15:03:40;7.90;99.90
40676;DHT22;26359;48.750;9.314;2022-11-20T15:06:09;7.90;99.90
40676;DHT22;26359;48.750;9.314;2022-11-20T15:08:35;7.80;99.90
40676;DHT22;26359;48.750;9.314;2022-11-20T15:11:02;7.80;99.90
40676;DHT22;26359;48.750;9.314;2022-11-20T15:13:38;7.70;99.90
40676;DHT22;26359;48.750;9.314;2022-11-20T15:16:17;7.60;99.90
40676;DHT22;26359;48.750;9.314;2022-11-20T15:18:43;7.70;99.90
40676;DHT22;26359;48.750;9.314;2022-11-20T15:21:14;7.60;99.90
40676;DHT22;26359;48.750;9.314;2022-11-20T15:23:40;7.60;99.90
40676;DHT22;26359;48.750;9.314;2022-11-20T15:26:07;7.60;99.90
40676;DHT22;26359;48.750;9.314;2022-11-20T15:28:37;7.60;99.90
40676;DHT22;26359;48.750;9.314;2022-11-20T15:31:04;7.40;99.90
40676;DHT22;26359;48.750;9.314;2022-11-20T15:33:31;7.40;99.90
40676;DHT22;26359;48.750;9.314;2022-11-20T15:35:57;7.40;99.90
40676;DHT22;26359;48.750;9.314;2022-11-20T15:38:23;7.20;99.90
40676;DHT22;26359;48.750;9.314;2022-11-20T15:40:48;7.30;99.90
40676;DHT22;26359;48.750;9.314;2022-11-20T15:43:14;7.20;99.90
40676;DHT22;26359;48.750;9.314;2022-11-20T15:45:54;7.10;99.90
40676;DHT22;26359;48.750;9.314;2022-11-20T15:53:38;7.20;99.90
40676;DHT22;26359;48.750;9.314;2022-11-20T15:56:04;7.10;99.90
40676;DHT22;26359;48.750;9.314;2022-11-20T15:58:30;7.00;99.90
40676;DHT22;26359;48.750;9.314;2022-11-20T16:00:55;6.90;99.90
40676;DHT22;26359;48.750;9.314;2022-11-20T16:03:22;6.80;99.90
40676;DHT22;26359;48.750;9.314;2022-11-20T16:05:48;6.90;99.90
40676;DHT22;26359;48.750;9.314;2022-11-20T16:08:13;6.90;99.90
40676;DHT22;26359;48.750;9.314;2022-11-20T16:10:39;6.90;99.90
40676;DHT22;26359;48.750;9.314;2022-11-20T16:13:11;6.90;99.90
40676;DHT22;26359;48.750;9.314;2022-11-20T16:15:57;6.90;99.90
40676;DHT22;26359;48.750;9.314;2022-11-20T16:18:24;6.90;99.90
40676;DHT22;26359;48.750;9.314;2022-11-20T16:20:52;6.90;99.90
40676;DHT22;26359;48.750;9.314;2022-11-20T16:23:18;6.90;99.90
40676;DHT22;26359;48.750;9.314;2022-11-20T16:25:45;6.90;99.90
40676;DHT22;26359;48.750;9.314;2022-11-20T16:28:11;6.90;99.90
40676;DHT22;26359;48.750;9.314;2022-11-20T16:30:37;6.80;99.90
40676;DHT22;26359;48.750;9.314;2022-11-20T16:33:03;6.80;99.90
40676;DHT22;26359;48.750;9.314;2022-11-20T16:35:30;6.80;99.90
40676;DHT22;26359;48.750;9.314;2022-11-20T16:37:57;6.80;99.90
40676;DHT22;26359;48.750;9.314;2022-11-20T16:40:24;6.80;99.90
40676;DHT22;26359;48.750;9.314;2022-11-20T16:42:50;6.80;99.90
40676;DHT22;26359;48.750;9.314;2022-11-20T16:45:16;6.80;99.90
40676;DHT22;26359;48.750;9.314;2022-11-20T16:47:42;6.90;99.90
40676;DHT22;26359;48.750;9.314;2022-11-20T16:50:08;7.00;99.90
40676;DHT22;26359;48.750;9.314;2022-11-20T16:52:34;7.00;99.90
40676;DHT22;26359;48.750;9.314;2022-11-20T16:54:59;7.00;99.90
40676;DHT22;26359;48.750;9.314;2022-11-20T16:57:27;7.00;99.90
40676;DHT22;26359;48.750;9.314;2022-11-20T16:59:54;7.00;99.90
40676;DHT22;26359;48.750;9.314;2022-11-20T17:02:19;6.90;99.90
40676;DHT22;26359;48.750;9.314;2022-11-20T17:04:45;7.00;99.90
40676;DHT22;26359;48.750;9.314;2022-11-20T17:07:10;7.00;99.90
40676;DHT22;26359;48.750;9.314;2022-11-20T17:09:37;6.90;99.90
40676;DHT22;26359;48.750;9.314;2022-11-20T17:12:02;6.90;99.90
40676;DHT22;26359;48.750;9.314;2022-11-20T17:14:28;6.90;99.90
40676;DHT22;26359;48.750;9.314;2022-11-20T17:16:54;6.90;99.90
40676;DHT22;26359;48.750;9.314;2022-11-20T17:19:19;6.90;99.90
40676;DHT22;26359;48.750;9.314;2022-11-20T17:21:45;6.90;99.90
40676;DHT22;26359;48.750;9.314;2022-11-20T17:24:12;6.90;99.90
40676;DHT22;26359;48.750;9.314;2022-11-20T17:26:39;6.90;99.90
40676;DHT22;26359;48.750;9.314;2022-11-20T17:29:14;6.90;99.90
40676;DHT22;26359;48.750;9.314;2022-11-20T17:31:41;6.90;99.90
40676;DHT22;26359;48.750;9.314;2022-11-20T17:34:09;6.90;99.90
40676;DHT22;26359;48.750;9.314;2022-11-20T17:36:35;6.90;99.90
40676;DHT22;26359;48.750;9.314;2022-11-20T17:39:01;6.90;99.90